Time;durP1;ratioP1;P1;durP2;ratioP2;P2;SDS_P1;SDS_P2;PMS_P1;PMS_P2;Temp;Humidity;BMP_temperature;BMP_pressure;BME280_temperature;BME280_humidity;BME280_pressure;Samples;Min_cycle;Max_cycle;Signal;HPM_P1;HPM_P2
2023/09/06 00:01:56;;;;;;;6.95;3.63;;;;;;;12.76;100.00;97648.59;4993554;28;20037;-83
2023/09/06 00:04:25;;;;;;;7.18;3.88;;;;;;;12.77;100.00;97652.94;4993689;28;20141;-84
2023/09/06 00:06:52;;;;;;;6.45;3.85;;;;;;;12.73;100.00;97652.66;4999858;28;20042;-85
2023/09/06 00:09:19;;;;;;;6.68;3.70;;;;;;;12.67;100.00;97652.84;4984611;28;20820;-85
2023/09/06 00:11:46;;;;;;;5.85;3.60;;;;;;;12.74;100.00;97650.72;4998213;28;20261;-83
2023/09/06 00:14:12;;;;;;;6.32;3.60;;;;;;;12.72;100.00;97642.84;4997232;28;20436;-82
2023/09/06 00:16:39;;;;;;;5.65;3.28;;;;;;;12.75;100.00;97642.31;5000573;28;20049;-83
2023/09/06 00:19:05;;;;;;;6.97;3.95;;;;;;;12.53;100.00;97647.03;4999006;28;20046;-84
2023/09/06 00:21:36;;;;;;;8.45;4.28;;;;;;;12.60;100.00;97634.88;5007833;28;20158;-83
2023/09/06 00:24:03;;;;;;;8.03;3.83;;;;;;;12.63;100.00;97633.53;5011265;28;20052;-84
2023/09/06 00:26:30;;;;;;;6.90;3.90;;;;;;;12.73;100.00;97644.50;4999414;28;20791;-84
2023/09/06 00:28:57;;;;;;;5.55;3.60;;;;;;;12.73;100.00;97638.25;5000978;28;20046;-82
2023/09/06 00:31:24;;;;;;;8.02;3.95;;;;;;;12.71;100.00;97634.94;5012590;28;20052;-83
2023/09/06 00:33:51;;;;;;;6.60;3.95;;;;;;;12.66;100.00;97633.03;5001654;28;20130;-82
2023/09/06 00:36:18;;;;;;;6.40;3.92;;;;;;;12.59;100.00;97630.53;4991714;28;20074;-83
2023/09/06 00:38:45;;;;;;;6.28;3.72;;;;;;;12.52;100.00;97631.78;5010982;28;20054;-83
2023/09/06 00:41:11;;;;;;;6.82;3.92;;;;;;;12.48;100.00;97635.06;4996248;28;20041;-83
2023/09/06 00:43:38;;;;;;;8.13;4.22;;;;;;;12.51;100.00;97631.00;5002473;28;20034;-82
2023/09/06 00:46:07;;;;;;;5.95;3.95;;;;;;;12.48;100.00;97631.50;5000312;28;20096;-84
2023/09/06 00:48:35;;;;;;;6.13;3.90;;;;;;;12.56;100.00;97632.91;4992643;28;20046;-83
2023/09/06 00:51:05;;;;;;;7.20;4.00;;;;;;;12.46;100.00;97633.66;4999958;28;20121;-82
2023/09/06 00:53:32;;;;;;;6.40;4.28;;;;;;;12.42;100.00;97636.06;5014769;28;20355;-84
2023/09/06 00:56:02;;;;;;;6.78;4.00;;;;;;;12.35;100.00;97633.56;4993928;28;20124;-83
2023/09/06 00:58:29;;;;;;;4.97;3.13;;;;;;;12.44;100.00;97633.94;4993850;28;20038;-83
2023/09/06 01:00:57;;;;;;;5.65;3.58;;;;;;;12.41;100.00;97639.88;4999443;28;20048;-83
2023/09/06 01:03:24;;;;;;;7.85;3.90;;;;;;;12.45;100.00;97637.44;4997471;28;20120;-84
2023/09/06 01:06:08;;;;;;;6.40;4.00;;;;;;;12.33;100.00;97634.91;4998722;28;20037;-84
2023/09/06 01:08:40;;;;;;;8.50;4.10;;;;;;;12.35;100.00;97638.19;5000185;28;20042;-83
2023/09/06 01:11:24;;;;;;;6.68;4.07;;;;;;;12.31;100.00;97632.44;4999927;28;20034;-83
2023/09/06 01:13:59;;;;;;;6.55;3.80;;;;;;;12.23;100.00;97630.19;5002841;28;20049;-83
2023/09/06 01:16:39;;;;;;;8.45;4.03;;;;;;;12.19;100.00;97627.16;4999782;28;20472;-84
2023/09/06 01:19:11;;;;;;;7.72;4.38;;;;;;;12.19;100.00;97619.03;4994816;28;20042;-83
2023/09/06 01:22:06;;;;;;;7.95;4.47;;;;;;;12.05;100.00;97632.19;4983755;28;20044;-83
2023/09/06 01:24:34;;;;;;;6.55;4.15;;;;;;;12.02;100.00;97629.13;5002170;28;20050;-83
2023/09/06 01:27:01;;;;;;;5.57;3.40;;;;;;;11.94;100.00;97622.28;4999167;28;20042;-83
2023/09/06 01:29:29;;;;;;;6.45;3.85;;;;;;;12.07;100.00;97624.63;4996055;28;20269;-83
2023/09/06 01:31:55;;;;;;;5.95;3.65;;;;;;;11.97;100.00;97616.31;4991367;28;20045;-82
2023/09/06 01:34:22;;;;;;;6.57;3.97;;;;;;;12.10;100.00;97620.56;4987640;28;20123;-82
2023/09/06 01:36:48;;;;;;;8.27;4.10;;;;;;;12.08;100.00;97617.28;5001791;28;20049;-83
2023/09/06 01:39:15;;;;;;;7.80;4.65;;;;;;;11.95;100.00;97624.72;5001242;28;20046;-83
2023/09/06 01:41:42;;;;;;;6.82;4.10;;;;;;;11.79;100.00;97628.34;5016401;28;20090;-83
2023/09/06 01:44:08;;;;;;;7.00;4.18;;;;;;;11.80;100.00;97622.66;5001514;28;20277;-83
2023/09/06 01:46:35;;;;;;;6.15;4.15;;;;;;;11.83;100.00;97621.31;5013170;28;20058;-83
2023/09/06 01:49:02;;;;;;;8.38;4.55;;;;;;;11.73;100.00;97613.06;5004785;28;20037;-83
2023/09/06 01:51:31;;;;;;;7.55;4.03;;;;;;;11.64;100.00;97618.13;4993648;28;20507;-83
2023/09/06 01:53:57;;;;;;;7.00;3.97;;;;;;;11.65;100.00;97620.56;5003094;28;20112;-82
2023/09/06 01:56:24;;;;;;;8.27;4.50;;;;;;;11.59;100.00;97621.59;4991840;28;20046;-83
2023/09/06 01:58:50;;;;;;;7.50;3.90;;;;;;;11.49;100.00;97616.84;5000942;28;20469;-82
2023/09/06 02:01:18;;;;;;;7.20;4.50;;;;;;;11.41;100.00;97630.84;4996225;28;20053;-83
2023/09/06 02:03:45;;;;;;;6.80;4.07;;;;;;;11.48;100.00;97628.78;5004887;28;20137;-83
2023/09/06 02:06:12;;;;;;;7.88;4.28;;;;;;;11.50;100.00;97623.13;4992072;28;20496;-82
2023/09/06 02:08:39;;;;;;;7.28;3.90;;;;;;;11.52;100.00;97629.09;4990127;28;20046;-83
2023/09/06 02:11:06;;;;;;;8.55;4.15;;;;;;;11.42;100.00;97619.75;5002267;28;20032;-83
2023/09/06 02:13:33;;;;;;;6.90;4.20;;;;;;;11.37;100.00;97617.00;4995300;28;20505;-82
2023/09/06 02:16:00;;;;;;;7.50;4.05;;;;;;;11.34;100.00;97616.66;4968286;28;20573;-82
2023/09/06 02:18:27;;;;;;;7.35;4.35;;;;;;;11.42;100.00;97617.03;4962599;28;20140;-83
2023/09/06 02:20:55;;;;;;;5.85;3.67;;;;;;;11.53;100.00;97615.28;4967715;28;20367;-83
2023/09/06 02:23:22;;;;;;;7.03;4.10;;;;;;;11.47;100.00;97618.19;4993740;28;20046;-83
2023/09/06 02:25:48;;;;;;;6.57;4.43;;;;;;;11.34;100.00;97611.22;4999725;28;20140;-83
2023/09/06 02:28:17;;;;;;;5.95;4.00;;;;;;;11.36;100.00;97619.94;4988785;28;20133;-83
2023/09/06 02:30:44;;;;;;;6.88;4.60;;;;;;;11.43;100.00;97615.16;4992185;28;20113;-82
2023/09/06 02:33:14;;;;;;;6.88;4.10;;;;;;;11.52;100.00;97616.38;4999826;28;20413;-82
2023/09/06 02:35:42;;;;;;;6.65;3.90;;;;;;;11.62;100.00;97609.41;4995788;28;20038;-82
2023/09/06 02:38:09;;;;;;;7.07;4.43;;;;;;;11.58;100.00;97615.34;4997661;28;20049;-83
2023/09/06 02:40:37;;;;;;;6.93;4.18;;;;;;;11.55;100.00;97615.88;5000836;28;20393;-83
2023/09/06 02:43:04;;;;;;;7.40;4.15;;;;;;;11.47;100.00;97610.88;4996693;28;20042;-83
2023/09/06 02:45:37;;;;;;;8.80;4.55;;;;;;;11.43;100.00;97620.59;4982052;28;20053;-83
2023/09/06 02:48:13;;;;;;;8.18;4.60;;;;;;;11.29;100.00;97615.53;4996222;28;20038;-83
2023/09/06 02:50:44;;;;;;;7.38;4.20;;;;;;;11.39;100.00;97622.16;5003426;28;20113;-82
2023/09/06 02:53:20;;;;;;;7.28;4.03;;;;;;;11.48;100.00;97633.38;4999053;28;20493;-83
2023/09/06 02:55:53;;;;;;;5.70;3.70;;;;;;;11.30;100.00;97622.59;4991770;28;20476;-82
2023/09/06 02:58:23;;;;;;;6.80;4.30;;;;;;;10.86;100.00;97631.44;5003874;28;20054;-83
2023/09/06 03:01:05;;;;;;;7.95;4.72;;;;;;;10.79;100.00;97619.94;5017327;28;20370;-83
2023/09/06 03:03:32;;;;;;;10.00;5.55;;;;;;;10.92;100.00;97616.09;4999235;28;20038;-83
2023/09/06 03:06:03;;;;;;;6.05;3.90;;;;;;;11.11;100.00;97619.34;5005434;28;20042;-83
2023/09/06 03:08:30;;;;;;;;;;;;;;;11.16;100.00;97622.13;4989018;28;20085;-82
2023/09/06 03:10:57;;;;;;;7.05;4.35;;;;;;;11.12;100.00;97622.88;5002747;28;19921;-83
2023/09/06 03:13:28;;;;;;;6.75;3.85;;;;;;;11.03;100.00;97625.19;5000248;28;20226;-84
2023/09/06 03:15:55;;;;;;;8.48;4.38;;;;;;;11.01;100.00;97617.31;5009056;28;20583;-82
2023/09/06 03:18:23;;;;;;;7.78;4.88;;;;;;;11.04;100.00;97622.25;4999114;28;20069;-82
2023/09/06 03:20:55;;;;;;;6.50;3.97;;;;;;;11.15;100.00;97622.38;4993636;28;20050;-83
2023/09/06 03:23:24;;;;;;;5.90;4.25;;;;;;;11.07;100.00;97623.63;5009633;28;20315;-83
2023/09/06 03:25:54;;;;;;;7.10;3.83;;;;;;;10.99;100.00;97630.28;4983644;28;20061;-83
2023/09/06 03:28:25;;;;;;;8.48;4.15;;;;;;;11.02;100.00;97632.50;4995557;28;20080;-83
2023/09/06 03:31:00;;;;;;;7.85;4.13;;;;;;;11.03;100.00;97625.19;4982852;28;20050;-83
2023/09/06 03:33:29;;;;;;;6.80;4.45;;;;;;;10.98;100.00;97630.53;4984120;28;20046;-83
2023/09/06 03:35:56;;;;;;;8.00;4.10;;;;;;;11.05;100.00;97629.28;5001460;28;21010;-83
2023/09/06 03:38:25;;;;;;;7.60;4.20;;;;;;;10.94;100.00;97632.91;5002465;28;20033;-83
2023/09/06 03:40:54;;;;;;;7.57;4.90;;;;;;;10.66;100.00;97632.75;5001803;28;20481;-83
2023/09/06 03:43:29;;;;;;;10.45;4.40;;;;;;;10.71;100.00;97632.03;5017262;28;20050;-84
2023/09/06 03:45:58;;;;;;;7.43;4.75;;;;;;;10.60;100.00;97632.91;4980692;28;20069;-83
2023/09/06 03:48:27;;;;;;;7.60;4.57;;;;;;;10.58;100.00;97635.06;5003622;28;20065;-83
2023/09/06 03:50:57;;;;;;;6.50;4.20;;;;;;;10.45;100.00;97628.91;5002833;28;20042;-83
2023/09/06 03:53:27;;;;;;;7.22;4.50;;;;;;;10.30;100.00;97626.72;5002374;28;20040;-82
2023/09/06 03:55:57;;;;;;;7.75;5.13;;;;;;;10.34;100.00;97629.75;4997161;28;20499;-83
2023/09/06 03:58:34;;;;;;;7.75;4.03;;;;;;;10.37;100.00;97627.41;5017329;28;20120;-82
2023/09/06 04:01:03;;;;;;;7.82;4.95;;;;;;;10.38;100.00;97628.19;5011539;28;20034;-83
2023/09/06 04:03:34;;;;;;;6.82;4.45;;;;;;;10.39;100.00;97636.06;4997209;28;20050;-83
2023/09/06 04:06:03;;;;;;;8.18;4.70;;;;;;;10.44;100.00;97631.81;4995734;28;20073;-82
2023/09/06 04:08:33;;;;;;;7.22;4.43;;;;;;;10.66;100.00;97634.66;5013670;28;20046;-83
2023/09/06 04:11:01;;;;;;;7.30;4.32;;;;;;;10.85;100.00;97631.69;5000793;28;20136;-83
2023/09/06 04:13:28;;;;;;;8.45;5.28;;;;;;;10.95;100.00;97628.31;4984141;28;20096;-82
2023/09/06 04:15:56;;;;;;;8.57;4.22;;;;;;;10.98;100.00;97635.97;5000831;28;20599;-83
2023/09/06 04:18:24;;;;;;;8.27;4.03;;;;;;;11.13;100.00;97640.78;4985127;28;20152;-83
2023/09/06 04:20:51;;;;;;;8.45;4.30;;;;;;;11.16;100.00;97641.09;4975443;28;20030;-83
2023/09/06 04:23:19;;;;;;;7.57;4.15;;;;;;;11.19;100.00;97634.34;4999797;28;20072;-83
2023/09/06 04:25:51;;;;;;;;;;;;;;;10.85;100.00;97632.53;4999439;28;20046;-83
2023/09/06 04:28:22;;;;;;;6.57;3.78;;;;;;;10.81;100.00;97639.50;4999766;28;20299;-83
2023/09/06 04:30:52;;;;;;;6.22;4.07;;;;;;;10.95;100.00;97636.44;4995953;28;20092;-82
2023/09/06 04:33:22;;;;;;;8.10;4.30;;;;;;;10.86;100.00;97630.63;4998413;28;20053;-83
2023/09/06 04:35:55;;;;;;;;;;;;;;;10.75;100.00;97630.47;5001126;28;20131;-82
2023/09/06 04:38:23;;;;;;;5.90;4.00;;;;;;;10.85;100.00;97628.97;4999395;28;20392;-83
2023/09/06 04:40:56;;;;;;;7.57;4.57;;;;;;;10.90;100.00;97632.59;4998660;28;20129;-83
2023/09/06 04:43:22;;;;;;;9.35;4.57;;;;;;;10.86;100.00;97631.44;5001227;28;20375;-82
2023/09/06 04:45:51;;;;;;;8.05;4.65;;;;;;;10.85;100.00;97628.97;4998521;28;20042;-83
2023/09/06 04:48:18;;;;;;;6.88;4.50;;;;;;;10.87;100.00;97626.84;4997831;28;20062;-83
2023/09/06 04:50:52;;;;;;;6.97;4.20;;;;;;;10.90;100.00;97637.19;4997376;28;20088;-82
2023/09/06 04:53:19;;;;;;;9.98;4.75;;;;;;;10.89;100.00;97639.09;4998830;28;20085;-83
2023/09/06 04:55:49;;;;;;;10.65;4.82;;;;;;;10.85;100.00;97640.66;4999934;28;20046;-83
2023/09/06 04:58:21;;;;;;;7.32;4.18;;;;;;;10.75;100.00;97640.47;4996887;28;20058;-82
2023/09/06 05:00:48;;;;;;;8.93;4.55;;;;;;;10.57;100.00;97639.66;4995665;28;20108;-83
2023/09/06 05:03:19;;;;;;;8.80;4.75;;;;;;;10.58;100.00;97641.28;5001831;28;20591;-83
2023/09/06 05:05:52;;;;;;;8.00;4.50;;;;;;;10.50;100.00;97644.38;5006921;28;20100;-83
2023/09/06 05:08:20;;;;;;;8.85;4.65;;;;;;;10.59;100.00;97642.13;5001226;28;20050;-84
2023/09/06 05:10:51;;;;;;;7.28;4.45;;;;;;;10.50;100.00;97644.38;5001563;28;20877;-84
2023/09/06 05:13:20;;;;;;;8.43;5.13;;;;;;;10.50;100.00;97644.38;4998062;28;20069;-86
2023/09/06 05:15:46;;;;;;;7.10;4.57;;;;;;;10.57;100.00;97647.78;4999493;28;20050;-86
2023/09/06 05:18:14;;;;;;;9.48;4.70;;;;;;;10.41;100.00;97652.06;5018219;28;20157;-84
2023/09/06 05:20:43;;;;;;;7.97;5.00;;;;;;;10.17;100.00;97654.88;4978396;28;20053;-84
2023/09/06 05:23:14;;;;;;;8.67;5.30;;;;;;;10.06;100.00;97659.28;4976929;28;20576;-85
2023/09/06 05:25:43;;;;;;;8.40;4.90;;;;;;;10.16;100.00;97655.97;4996883;28;20069;-84
2023/09/06 05:28:15;;;;;;;7.20;4.53;;;;;;;10.33;100.00;97650.59;4981506;28;20137;-82
2023/09/06 05:30:48;;;;;;;8.23;5.25;;;;;;;10.32;100.00;97658.97;5000622;28;20592;-84
2023/09/06 05:33:16;;;;;;;7.53;4.55;;;;;;;10.50;100.00;97655.22;5017737;28;20042;-84
2023/09/06 05:35:44;;;;;;;10.10;5.35;;;;;;;10.48;100.00;97658.19;4995939;28;20132;-84
2023/09/06 05:38:12;;;;;;;10.02;5.63;;;;;;;10.45;100.00;97663.25;4995702;28;20112;-84
2023/09/06 05:40:43;;;;;;;7.55;4.57;;;;;;;10.62;100.00;97664.09;4997369;28;20054;-84
2023/09/06 05:43:17;;;;;;;9.30;5.18;;;;;;;10.85;100.00;97664.19;5013560;28;20520;-84
2023/09/06 05:45:44;;;;;;;10.38;6.25;;;;;;;10.93;100.00;97661.91;4984386;28;20050;-84
2023/09/06 05:48:14;;;;;;;9.82;5.50;;;;;;;10.96;100.00;97657.03;4998747;28;20046;-85
2023/09/06 05:50:41;;;;;;;12.43;5.28;;;;;;;11.14;100.00;97658.69;5000848;28;20044;-85
2023/09/06 05:53:08;;;;;;;7.90;4.85;;;;;;;10.99;100.00;97667.41;4991416;28;20034;-84
2023/09/06 05:55:35;;;;;;;8.23;5.10;;;;;;;11.20;100.00;97663.09;5000322;28;20051;-85
2023/09/06 05:58:02;;;;;;;9.40;5.00;;;;;;;11.31;100.00;97664.88;4997243;28;20034;-85
2023/09/06 06:00:29;;;;;;;8.77;5.28;;;;;;;11.50;100.00;97667.31;5002528;28;20112;-83
2023/09/06 06:02:58;;;;;;;7.93;5.07;;;;;;;11.57;100.00;97667.13;4994418;28;20042;-82
2023/09/06 06:05:26;;;;;;;10.55;5.78;;;;;;;11.83;100.00;97662.84;4995618;28;20050;-84
2023/09/06 06:07:53;;;;;;;11.10;6.18;;;;;;;11.88;100.00;97666.69;4993758;28;20052;-84
2023/09/06 06:10:19;;;;;;;8.98;4.90;;;;;;;12.03;100.00;97661.44;4995127;28;20576;-83
2023/09/06 06:12:46;;;;;;;10.45;5.00;;;;;;;12.17;100.00;97664.59;4992997;28;20046;-85
2023/09/06 06:15:13;;;;;;;7.35;4.75;;;;;;;12.27;100.00;97665.81;5004451;28;20314;-85
2023/09/06 06:17:41;;;;;;;7.72;4.97;;;;;;;12.34;100.00;97659.09;4991911;28;20084;-84
2023/09/06 06:20:10;;;;;;;10.68;4.95;;;;;;;12.50;100.00;97659.25;5002680;28;20068;-84
2023/09/06 06:22:38;;;;;;;9.60;4.45;;;;;;;12.64;100.00;97658.81;5005455;28;20053;-84
2023/09/06 06:25:10;;;;;;;6.85;4.22;;;;;;;12.77;100.00;97666.53;5001751;28;20064;-83
2023/09/06 06:27:38;;;;;;;9.43;4.97;;;;;;;12.93;100.00;97663.94;5003970;28;20204;-85
2023/09/06 06:30:06;;;;;;;9.90;4.60;;;;;;;13.08;100.00;97669.47;5004847;28;20030;-84
2023/09/06 06:32:34;;;;;;;8.85;4.97;;;;;;;13.18;100.00;97663.28;5003663;28;20034;-85
2023/09/06 06:35:05;;;;;;;7.93;4.80;;;;;;;13.30;100.00;97670.44;5005277;28;20057;-85
2023/09/06 06:37:32;;;;;;;13.65;9.20;;;;;;;13.44;100.00;97668.06;5005144;28;20104;-84
2023/09/06 06:39:59;;;;;;;9.20;4.95;;;;;;;13.52;100.00;97664.88;5004122;28;20044;-85
2023/09/06 06:42:26;;;;;;;7.57;5.00;;;;;;;13.72;100.00;97666.06;5015781;28;20523;-84
2023/09/06 06:44:56;;;;;;;9.45;5.45;;;;;;;13.87;100.00;97663.41;5012202;28;20404;-84
2023/09/06 06:47:23;;;;;;;8.43;4.63;;;;;;;14.00;100.00;97670.25;5003848;28;20509;-84
2023/09/06 06:49:54;;;;;;;7.45;4.40;;;;;;;14.13;100.00;97670.84;5000024;28;20069;-85
2023/09/06 06:52:21;;;;;;;6.40;3.72;;;;;;;14.29;100.00;97671.69;5001718;28;20054;-84
2023/09/06 06:54:48;;;;;;;9.90;5.07;;;;;;;14.46;100.00;97684.25;4997389;28;20052;-84
2023/09/06 06:57:14;;;;;;;7.57;4.18;;;;;;;14.59;100.00;97667.38;5003895;28;20057;-84
2023/09/06 06:59:41;;;;;;;8.43;4.80;;;;;;;14.84;100.00;97676.69;5002361;28;20076;-85
2023/09/06 07:02:08;;;;;;;8.55;4.18;;;;;;;15.12;98.08;97674.53;5004621;28;20595;-85
2023/09/06 07:04:35;;;;;;;9.13;4.50;;;;;;;15.32;96.00;97676.38;5001467;28;20080;-85
2023/09/06 07:07:02;;;;;;;7.68;4.25;;;;;;;15.64;93.41;97687.22;5003147;28;20041;-85
2023/09/06 07:09:28;;;;;;;9.60;4.82;;;;;;;15.86;91.21;97684.16;4997693;28;20058;-84
2023/09/06 07:11:55;;;;;;;7.95;4.95;;;;;;;16.04;90.24;97687.38;4998666;28;20477;-84
2023/09/06 07:14:22;;;;;;;7.90;4.55;;;;;;;16.16;88.75;97689.78;5003047;28;20552;-84
2023/09/06 07:16:48;;;;;;;7.28;4.45;;;;;;;16.26;89.02;97689.75;4988928;28;20401;-84
2023/09/06 07:19:15;;;;;;;8.25;4.65;;;;;;;16.33;88.28;97689.44;4990944;28;20050;-83
2023/09/06 07:21:42;;;;;;;8.55;4.38;;;;;;;16.41;87.23;97693.47;4998720;28;20042;-84
2023/09/06 07:24:10;;;;;;;7.68;4.68;;;;;;;16.44;86.55;97693.72;5004135;28;20041;-84
2023/09/06 07:26:36;;;;;;;8.88;4.68;;;;;;;16.58;86.32;97690.38;4985578;28;20064;-84
2023/09/06 07:29:03;;;;;;;6.90;4.75;;;;;;;16.61;85.88;97689.78;4999600;28;20074;-84
2023/09/06 07:31:30;;;;;;;8.60;4.82;;;;;;;16.72;86.90;97691.38;5010123;28;20504;-85
2023/09/06 07:33:58;;;;;;;9.52;4.80;;;;;;;16.83;85.61;97683.91;5002282;28;20104;-85
2023/09/06 07:36:24;;;;;;;10.82;5.13;;;;;;;16.94;85.47;97684.63;5002790;28;20052;-84
2023/09/06 07:38:54;;;;;;;9.85;5.82;;;;;;;17.01;86.41;97687.88;5001297;28;20509;-84
2023/09/06 07:41:21;;;;;;;5.43;3.65;;;;;;;17.07;86.99;97683.22;4995712;28;20081;-84
2023/09/06 07:43:48;;;;;;;7.60;4.10;;;;;;;17.23;85.93;97691.25;5002642;28;20241;-84
2023/09/06 07:46:15;;;;;;;7.70;3.60;;;;;;;17.34;84.41;97691.97;5003862;28;20049;-84
2023/09/06 07:48:41;;;;;;;7.63;4.47;;;;;;;17.43;85.03;97687.50;4995414;28;20037;-84
2023/09/06 07:51:08;;;;;;;6.35;3.92;;;;;;;17.48;84.66;97681.16;5018233;28;20529;-85
2023/09/06 07:53:35;;;;;;;7.15;3.83;;;;;;;17.55;85.39;97687.91;4999197;28;20322;-84
2023/09/06 07:56:05;;;;;;;6.78;4.20;;;;;;;17.55;84.96;97685.19;5002149;28;20546;-85
2023/09/06 07:58:32;;;;;;;11.95;4.28;;;;;;;17.58;83.60;97688.47;5015278;28;20489;-84
2023/09/06 08:00:59;;;;;;;6.85;4.13;;;;;;;17.64;84.39;97690.84;5000571;28;20770;-84
2023/09/06 08:03:29;;;;;;;6.43;3.78;;;;;;;17.71;83.90;97697.88;5003951;28;20044;-84
2023/09/06 08:05:56;;;;;;;7.50;3.90;;;;;;;17.79;83.48;97691.78;5000002;28;20072;-83
2023/09/06 08:08:22;;;;;;;7.35;4.13;;;;;;;17.86;82.75;97700.47;4999739;28;20049;-84
2023/09/06 08:10:49;;;;;;;7.68;4.20;;;;;;;17.94;83.74;97701.72;4995854;28;20037;-85
2023/09/06 08:13:16;;;;;;;5.38;3.50;;;;;;;17.99;82.88;97700.88;5002301;28;20128;-84
2023/09/06 08:15:42;;;;;;;6.55;3.72;;;;;;;18.11;82.24;97711.44;4999040;28;20039;-84
2023/09/06 08:18:10;;;;;;;8.07;4.35;;;;;;;18.21;81.96;97705.84;4977317;28;20049;-84
2023/09/06 08:20:37;;;;;;;10.07;4.03;;;;;;;18.40;81.68;97705.84;5000316;28;20046;-84
2023/09/06 08:23:04;;;;;;;5.68;3.83;;;;;;;18.48;80.28;97709.03;5000028;28;20096;-84
2023/09/06 08:25:31;;;;;;;8.85;4.30;;;;;;;18.49;80.56;97721.63;5000093;28;20050;-84
2023/09/06 08:27:57;;;;;;;10.10;3.90;;;;;;;18.57;79.48;97719.03;4997477;28;20041;-84
2023/09/06 08:30:24;;;;;;;7.07;4.45;;;;;;;18.64;78.54;97718.66;4997862;28;20428;-84
2023/09/06 08:32:51;;;;;;;7.20;3.60;;;;;;;18.70;78.24;97711.19;5001626;28;20054;-85
2023/09/06 08:35:18;;;;;;;7.05;3.53;;;;;;;18.72;78.85;97714.44;5022419;28;20112;-84
2023/09/06 08:37:46;;;;;;;9.13;3.72;;;;;;;18.80;80.27;97711.00;5023532;28;20048;-85
2023/09/06 08:40:13;;;;;;;6.10;3.60;;;;;;;18.94;78.82;97711.09;5005346;28;20042;-85
2023/09/06 08:42:39;;;;;;;8.23;3.97;;;;;;;19.03;77.60;97715.88;5017412;28;20050;-84
2023/09/06 08:45:08;;;;;;;6.03;3.78;;;;;;;19.14;80.02;97711.06;5000049;28;20052;-85
2023/09/06 08:47:41;;;;;;;8.38;3.60;;;;;;;19.27;78.41;97717.75;5016701;28;20600;-84
2023/09/06 08:50:10;;;;;;;7.97;3.92;;;;;;;19.34;78.48;97712.66;4996571;28;20038;-84
2023/09/06 08:52:41;;;;;;;9.40;4.40;;;;;;;19.48;78.51;97713.50;5001855;28;20444;-85
2023/09/06 08:55:10;;;;;;;9.27;3.90;;;;;;;19.59;76.31;97716.88;5007052;28;20104;-83
2023/09/06 08:57:41;;;;;;;6.30;3.78;;;;;;;19.69;75.47;97715.06;5007870;28;20121;-84
2023/09/06 09:00:10;;;;;;;5.25;3.58;;;;;;;19.73;75.15;97722.41;5002006;28;20069;-84
2023/09/06 09:02:40;;;;;;;6.38;3.63;;;;;;;19.75;75.08;97724.81;4990374;28;20197;-85
2023/09/06 09:05:09;;;;;;;9.60;4.10;;;;;;;19.79;74.50;97725.03;5020687;28;20038;-84
2023/09/06 09:07:49;;;;;;;6.18;3.85;;;;;;;19.86;75.90;97725.44;5020180;28;20041;-85
2023/09/06 09:10:16;;;;;;;9.65;3.75;;;;;;;19.88;75.74;97724.03;5015243;28;20053;-84
2023/09/06 09:12:43;;;;;;;6.72;3.78;;;;;;;19.95;74.21;97717.31;4981519;28;20045;-84
2023/09/06 09:15:10;;;;;;;6.93;3.53;;;;;;;19.98;75.03;97714.78;5005928;28;20543;-84
2023/09/06 09:17:40;;;;;;;5.78;3.20;;;;;;;20.12;75.41;97712.03;5004038;28;20046;-85
2023/09/06 09:20:26;;;;;;;9.43;3.60;;;;;;;20.22;73.93;97718.44;4999663;28;20175;-85
2023/09/06 09:23:01;;;;;;;8.68;4.13;;;;;;;20.30;74.42;97714.97;5014504;28;20046;-84
2023/09/06 09:25:28;;;;;;;7.97;3.92;;;;;;;20.41;73.76;97718.31;5001389;28;20677;-84
2023/09/06 09:27:57;;;;;;;6.15;3.60;;;;;;;20.45;72.71;97710.28;5002908;28;20041;-84
2023/09/06 09:30:26;;;;;;;8.95;4.20;;;;;;;20.54;73.78;97711.16;4997854;28;20530;-83
2023/09/06 09:32:58;;;;;;;11.13;3.70;;;;;;;20.61;72.73;97711.56;5001089;28;20038;-84
2023/09/06 09:35:26;;;;;;;8.45;4.07;;;;;;;20.74;73.21;97718.13;4999474;28;20116;-83
2023/09/06 09:37:53;;;;;;;9.35;4.10;;;;;;;20.75;71.81;97717.00;5003431;28;20136;-84
2023/09/06 09:40:22;;;;;;;7.40;3.90;;;;;;;20.82;72.09;97719.31;4990566;28;20054;-84
2023/09/06 09:43:07;;;;;;;11.35;4.03;;;;;;;20.86;71.48;97706.56;5003895;28;20043;-84
2023/09/06 09:45:43;;;;;;;7.03;3.83;;;;;;;20.89;70.28;97714.22;4997602;28;20156;-85
2023/09/06 09:48:11;;;;;;;11.25;4.00;;;;;;;20.94;70.03;97718.81;5004641;28;20041;-84
2023/09/06 09:50:41;;;;;;;9.77;4.40;;;;;;;20.96;70.54;97704.75;5001657;28;20042;-85
2023/09/06 09:53:09;;;;;;;8.05;3.65;;;;;;;21.02;70.85;97706.22;5000467;28;20121;-84
2023/09/06 09:55:47;;;;;;;9.60;4.03;;;;;;;21.12;69.63;97705.16;4997512;28;20173;-85
2023/09/06 09:58:15;;;;;;;9.30;4.10;;;;;;;21.18;68.60;97709.41;5004259;28;20492;-84
2023/09/06 10:00:42;;;;;;;6.38;3.60;;;;;;;21.22;68.82;97715.91;5002216;28;20127;-84
2023/09/06 10:03:10;;;;;;;7.75;4.38;;;;;;;21.29;66.97;97720.97;5000514;28;20081;-84
2023/09/06 10:05:37;;;;;;;7.47;4.25;;;;;;;21.17;67.25;97722.38;4997479;28;20325;-85
2023/09/06 10:08:07;;;;;;;9.43;4.10;;;;;;;21.29;67.33;97718.22;4980149;28;20041;-83
2023/09/06 10:10:37;;;;;;;8.00;3.95;;;;;;;21.31;66.90;97715.97;5012079;28;20045;-84
2023/09/06 10:13:07;;;;;;;8.27;4.63;;;;;;;21.28;66.74;97719.34;5014734;28;20038;-84
2023/09/06 10:15:35;;;;;;;8.80;4.57;;;;;;;21.40;67.33;97713.25;4995539;28;20054;-84
2023/09/06 10:18:04;;;;;;;6.65;3.80;;;;;;;21.48;66.96;97715.25;5001505;28;20137;-84
2023/09/06 10:20:32;;;;;;;6.68;4.45;;;;;;;21.59;66.21;97707.53;5003527;28;20042;-85
2023/09/06 10:23:00;;;;;;;9.10;4.25;;;;;;;21.54;65.86;97702.97;5002422;28;20037;-85
2023/09/06 10:25:27;;;;;;;10.65;4.35;;;;;;;21.52;65.72;97696.97;5001220;28;20045;-84
2023/09/06 10:27:55;;;;;;;7.07;3.90;;;;;;;21.55;66.41;97701.03;5000294;28;20096;-83
2023/09/06 10:30:48;;;;;;;6.40;4.13;;;;;;;21.59;66.00;97699.25;5019544;28;20108;-85
2023/09/06 10:33:33;;;;;;;8.73;3.85;;;;;;;21.69;65.22;97707.25;4998353;28;20050;-84
2023/09/06 10:36:07;;;;;;;8.05;3.88;;;;;;;21.80;64.84;97695.97;4997053;28;20515;-84
2023/09/06 10:38:55;;;;;;;7.38;4.20;;;;;;;21.82;63.72;97708.31;5002233;28;20125;-84
2023/09/06 10:41:22;;;;;;;6.00;3.88;;;;;;;21.85;63.85;97701.34;4985394;28;20054;-83
2023/09/06 10:43:58;;;;;;;9.55;4.35;;;;;;;21.87;64.00;97701.03;5017515;28;20041;-85
2023/09/06 10:46:35;;;;;;;7.25;4.00;;;;;;;22.03;63.63;97699.47;5000685;28;20500;-85
2023/09/06 10:49:23;;;;;;;8.35;4.47;;;;;;;22.08;63.25;97701.28;4984782;28;20057;-85
2023/09/06 10:52:04;;;;;;;6.95;4.05;;;;;;;22.18;63.05;97692.69;4999911;28;20049;-85
2023/09/06 10:54:39;;;;;;;7.03;3.65;;;;;;;22.25;63.51;97703.25;4999317;28;20497;-85
2023/09/06 10:57:10;;;;;;;6.88;4.35;;;;;;;22.32;64.30;97692.56;4994433;28;20045;-85
2023/09/06 10:59:43;;;;;;;8.10;3.83;;;;;;;22.38;62.30;97697.91;5001607;28;20041;-86
2023/09/06 11:02:19;;;;;;;7.70;4.05;;;;;;;22.40;63.09;97688.19;5017968;28;20416;-85
2023/09/06 11:04:49;;;;;;;5.70;3.80;;;;;;;22.48;62.64;97695.66;5001136;28;20038;-84
2023/09/06 11:07:15;;;;;;;6.22;4.10;;;;;;;22.59;62.56;97693.41;4981774;28;20206;-83
2023/09/06 11:09:50;;;;;;;9.38;4.00;;;;;;;22.60;62.42;97691.50;4989944;28;20056;-84
2023/09/06 11:12:17;;;;;;;6.53;4.05;;;;;;;22.67;63.36;97689.03;4997293;28;20088;-85
2023/09/06 11:14:47;;;;;;;6.00;3.90;;;;;;;22.77;61.87;97689.88;5015072;28;20037;-84
2023/09/06 11:17:21;;;;;;;6.65;3.78;;;;;;;22.85;62.28;97683.53;4997816;28;20043;-86
2023/09/06 11:19:48;;;;;;;7.38;4.32;;;;;;;22.85;61.53;97676.03;4999663;28;20038;-85
2023/09/06 11:22:16;;;;;;;6.57;3.80;;;;;;;22.93;61.81;97684.66;4977205;28;20458;-85
2023/09/06 11:24:43;;;;;;;6.25;3.42;;;;;;;23.09;61.72;97676.66;4994452;28;20144;-85
2023/09/06 11:27:24;;;;;;;5.80;3.90;;;;;;;23.16;61.42;97673.41;5012912;28;20038;-84
2023/09/06 11:30:15;;;;;;;6.82;4.07;;;;;;;23.24;61.00;97672.56;4998989;28;20045;-87
2023/09/06 11:32:44;;;;;;;6.90;3.90;;;;;;;23.24;61.22;97667.88;4997496;28;20946;-84
2023/09/06 11:35:13;;;;;;;7.82;3.80;;;;;;;23.47;61.05;97670.44;4999310;28;20074;-85
2023/09/06 11:37:46;;;;;;;7.90;3.90;;;;;;;23.43;60.66;97669.47;5001998;28;20084;-84
2023/09/06 11:40:15;;;;;;;6.40;3.95;;;;;;;23.52;60.21;97672.22;4996061;28;20272;-83